createdAt,value
2022-10-11T00:02:49.444Z,98502.16
2022-10-11T00:07:52.371Z,98503.44
2022-10-11T00:12:54.708Z,98502.19
2022-10-11T00:17:57.082Z,98508.78
2022-10-11T00:22:59.533Z,98507.09
2022-10-11T00:28:01.881Z,98508.53
2022-10-11T00:33:04.311Z,98501.34
2022-10-11T00:38:06.660Z,98504.59
2022-10-11T00:43:21.256Z,98515.03
2022-10-11T00:48:43.515Z,98506.28
2022-10-11T00:53:49.653Z,98510.19
2022-10-11T00:58:53.167Z,98515.16
2022-10-11T01:03:56.872Z,98516.47
2022-10-11T01:09:00.207Z,98513.88
2022-10-11T01:14:11.370Z,98514.22
2022-10-11T01:19:16.510Z,98522.56
2022-10-11T01:24:36.670Z,98521.69
2022-10-11T01:30:08.380Z,98507.81
2022-10-11T01:35:31.753Z,98531.31
2022-10-11T01:40:47.437Z,98520.94
2022-10-11T01:45:55.148Z,98522.47
2022-10-11T01:50:59.387Z,98516.72
2022-10-11T01:56:16.881Z,98523.50
2022-10-11T02:01:41.261Z,98522.59
2022-10-11T02:06:49.450Z,98518.88
2022-10-11T02:11:56.885Z,98513.19
2022-10-11T02:17:04.581Z,98512.91
2022-10-11T02:22:12.753Z,98518.94
2022-10-11T02:27:19.173Z,98523.78
2022-10-11T02:32:24.159Z,98521.03
2022-10-11T02:37:55.257Z,98527.44
2022-10-11T02:43:17.762Z,98535.63
2022-10-11T02:48:20.203Z,98534.78
2022-10-11T02:53:23.798Z,98533.66
2022-10-11T02:58:26.287Z,98535.22
2022-10-11T03:03:28.688Z,98535.72
2022-10-11T03:08:31.134Z,98538.78
2022-10-11T03:13:33.566Z,98545.94
2022-10-11T03:18:35.939Z,98548.16
2022-10-11T03:23:38.261Z,98544.81
2022-10-11T03:28:40.686Z,98543.09
2022-10-11T03:33:43.018Z,98556.00
2022-10-11T03:38:45.600Z,98555.94
2022-10-11T03:43:48.183Z,98552.72
2022-10-11T03:48:50.649Z,98561.47
2022-10-11T03:53:53.156Z,98559.84
2022-10-11T03:58:55.819Z,98571.03
2022-10-11T04:03:58.307Z,98570.22
2022-10-11T04:09:01.016Z,98581.47
2022-10-11T04:14:03.686Z,98588.38
2022-10-11T04:19:06.115Z,98579.19
2022-10-11T04:24:10.653Z,98593.06
2022-10-11T04:29:13.044Z,98586.03
2022-10-11T04:34:15.659Z,98582.06
2022-10-11T04:39:18.532Z,98584.59
2022-10-11T04:44:20.908Z,98587.13
2022-10-11T04:49:23.410Z,98595.84
2022-10-11T04:54:26.221Z,98590.97
2022-10-11T04:59:28.583Z,98606.88
2022-10-11T05:04:31.019Z,98599.81
2022-10-11T05:09:33.383Z,98608.25
2022-10-11T05:14:35.836Z,98609.00
2022-10-11T05:19:38.212Z,98618.78
2022-10-11T05:24:40.603Z,98630.38
2022-10-11T05:29:42.955Z,98626.16
2022-10-11T05:34:45.456Z,98627.34
2022-10-11T05:39:48.149Z,98641.09
2022-10-11T05:44:50.594Z,98637.91
2022-10-11T05:49:52.907Z,98646.63
2022-10-11T05:54:55.299Z,98646.91
2022-10-11T05:59:57.848Z,98656.88
2022-10-11T06:05:00.352Z,98666.19
2022-10-11T06:10:04.068Z,98673.78
2022-10-11T06:15:07.533Z,98668.34
2022-10-11T06:20:10.689Z,98679.59
2022-10-11T06:25:13.099Z,98687.28
2022-10-11T06:30:15.734Z,98683.28
2022-10-11T06:35:18.450Z,98687.91
2022-10-11T06:40:20.851Z,98701.97
2022-10-11T06:45:23.308Z,98697.66
2022-10-11T06:50:47.142Z,98705.59
2022-10-11T06:55:48.359Z,98710.81
2022-10-11T07:00:50.844Z,98712.97
2022-10-11T07:05:53.248Z,98721.47
2022-10-11T07:11:04.613Z,98730.97
2022-10-11T07:16:09.916Z,98738.03
2022-10-11T07:21:14.852Z,98741.28
2022-10-11T07:26:18.359Z,98744.13
2022-10-11T07:31:23.229Z,98746.66
2022-10-11T07:36:27.434Z,98747.47
2022-10-11T07:41:30.011Z,98746.81
2022-10-11T07:46:32.829Z,98741.38
2022-10-11T07:51:35.531Z,98746.88
2022-10-11T07:56:39.966Z,98743.19
2022-10-11T08:01:42.685Z,98754.38
2022-10-11T08:06:47.719Z,98756.81
2022-10-11T08:11:53.456Z,98754.06
2022-10-11T08:16:55.914Z,98760.19
2022-10-11T08:21:58.358Z,98755.28
2022-10-11T08:27:00.769Z,98748.41
2022-10-11T08:32:03.203Z,98765.09
2022-10-11T08:37:05.858Z,98767.84
2022-10-11T08:42:23.730Z,98772.13
2022-10-11T08:47:42.833Z,98766.31
2022-10-11T08:53:04.645Z,98771.53
2022-10-11T08:58:09.378Z,98777.31
2022-10-11T09:03:21.058Z,98766.47
2022-10-11T09:08:32.638Z,98768.75
2022-10-11T09:13:52.423Z,98770.91
2022-10-11T09:18:57.795Z,98775.81
2022-10-11T09:24:03.152Z,98771.50
2022-10-11T09:29:19.022Z,98772.91
2022-10-11T09:34:25.354Z,98781.63
2022-10-11T09:39:58.866Z,98773.22
2022-10-11T09:45:02.139Z,98779.16
2022-10-11T09:50:26.305Z,98789.56
2022-10-11T09:55:34.688Z,98788.34
2022-10-11T10:00:38.556Z,98789.41
2022-10-11T10:05:40.931Z,98790.16
2022-10-11T10:10:48.691Z,98782.84
2022-10-11T10:15:55.450Z,98783.47
2022-10-11T10:20:59.716Z,98786.06
2022-10-11T10:26:21.169Z,98780.84
2022-10-11T10:31:29.527Z,98782.03
2022-10-11T10:36:39.777Z,98791.38
2022-10-11T10:41:42.244Z,98784.03
2022-10-11T10:47:02.404Z,98787.13
2022-10-11T10:52:28.986Z,98785.41
2022-10-11T10:57:38.182Z,98786.19
2022-10-11T11:02:58.844Z,98777.25
2022-10-11T11:08:16.499Z,98776.97
2022-10-11T11:13:43.911Z,98774.03
2022-10-11T11:19:02.877Z,98775.13
2022-10-11T11:24:13.598Z,98775.13
2022-10-11T11:29:27.399Z,98763.16
2022-10-11T11:34:37.162Z,98765.66
2022-10-11T11:39:51.844Z,98767.97
2022-10-11T11:44:54.540Z,98767.13
2022-10-11T11:50:19.227Z,98764.44
2022-10-11T11:55:37.835Z,98762.56
2022-10-11T12:00:58.905Z,98766.25
2022-10-11T12:06:13.476Z,98760.13
2022-10-11T12:11:34.564Z,98756.59
2022-10-11T12:17:07.025Z,98761.22
2022-10-11T12:22:27.866Z,98752.44
2022-10-11T12:27:42.175Z,98749.69
2022-10-11T12:32:44.480Z,98750.75
2022-10-11T12:38:02.619Z,98745.25
2022-10-11T12:43:25.856Z,98747.09
2022-10-11T12:48:45.333Z,98742.34
2022-10-11T12:54:25.039Z,98737.13
2022-10-11T12:59:23.541Z,98735.00
2022-10-11T13:04:32.603Z,98734.69
2022-10-11T13:09:41.057Z,98738.69
2022-10-11T13:14:53.507Z,98729.44
2022-10-11T13:20:09.369Z,98720.69
2022-10-11T13:25:17.251Z,98722.69
2022-10-11T13:30:29.672Z,98708.72
2022-10-11T13:35:39.270Z,98717.13
2022-10-11T13:40:41.772Z,98715.47
2022-10-11T13:45:44.347Z,98713.09
2022-10-11T13:51:16.931Z,98711.28
2022-10-11T13:56:20.132Z,98717.00
2022-10-11T14:01:34.946Z,98707.75
2022-10-11T14:06:59.723Z,98710.13
2022-10-11T14:12:43.270Z,98711.78
2022-10-11T14:17:46.467Z,98712.13
2022-10-11T14:22:53.530Z,98710.63
2022-10-11T14:27:58.554Z,98720.69
2022-10-11T14:33:02.716Z,98718.19
2022-10-11T14:38:11.888Z,98718.19
2022-10-11T14:43:14.261Z,98714.16
2022-10-11T14:48:26.715Z,98710.06
2022-10-11T14:53:46.089Z,98711.09
2022-10-11T14:58:48.887Z,98707.97
2022-10-11T15:03:51.636Z,98711.66
2022-10-11T15:08:54.171Z,98704.66
2022-10-11T15:13:56.772Z,98706.00
2022-10-11T15:18:59.236Z,98703.44
2022-10-11T15:24:01.842Z,98697.84
2022-10-11T15:29:04.792Z,98701.88
2022-10-11T15:34:07.278Z,98699.41
2022-10-11T15:39:28.028Z,98702.13
2022-10-11T15:44:30.474Z,98697.22
2022-10-11T15:49:33.257Z,98697.19
2022-10-11T15:54:35.716Z,98693.47
2022-10-11T15:59:38.098Z,98700.66
2022-10-11T16:04:40.775Z,98695.41
2022-10-11T16:09:43.197Z,98702.56
2022-10-11T16:14:47.310Z,98694.28
2022-10-11T16:19:50.541Z,98690.91
2022-10-11T16:24:53.024Z,98696.06
2022-10-11T16:29:55.725Z,98699.41
2022-10-11T16:34:58.550Z,98697.03
2022-10-11T16:40:01.129Z,98699.03
2022-10-11T16:45:03.922Z,98692.25
2022-10-11T16:50:06.876Z,98702.63
2022-10-11T16:55:09.713Z,98707.16
2022-10-11T17:00:13.214Z,98703.78
2022-10-11T17:05:15.758Z,98713.22
2022-10-11T17:10:18.502Z,98706.13
2022-10-11T17:15:21.903Z,98703.25
2022-10-11T17:20:24.271Z,98708.31
2022-10-11T17:25:26.760Z,98707.91
2022-10-11T17:30:31.965Z,98707.94
2022-10-11T17:35:36.962Z,98700.72
2022-10-11T17:40:39.476Z,98698.66
2022-10-11T17:45:42.079Z,98690.69
2022-10-11T17:50:49.640Z,98697.84
2022-10-11T17:55:54.245Z,98711.44
2022-10-11T18:01:00.402Z,98722.22
2022-10-11T18:06:07.717Z,98728.09
2022-10-11T18:11:12.531Z,98730.31
2022-10-11T18:16:17.196Z,98725.03
2022-10-11T18:21:20.008Z,98723.03
2022-10-11T18:26:27.997Z,98715.97
2022-10-11T18:31:35.144Z,98703.66
2022-10-11T18:36:38.948Z,98701.22
2022-10-11T18:41:44.427Z,98709.44
2022-10-11T18:46:48.481Z,98708.16
2022-10-11T18:51:51.091Z,98706.41
2022-10-11T18:56:53.670Z,98703.19
2022-10-11T19:01:56.032Z,98708.66
2022-10-11T19:06:58.486Z,98706.41
2022-10-11T19:12:00.930Z,98704.88
2022-10-11T19:17:03.366Z,98701.59
2022-10-11T19:22:06.487Z,98703.66
2022-10-11T19:27:08.820Z,98699.72
2022-10-11T19:32:11.290Z,98704.63
2022-10-11T19:37:14.420Z,98707.13
2022-10-11T19:42:16.936Z,98705.91
2022-10-11T19:47:19.525Z,98701.97
2022-10-11T19:52:22.067Z,98707.13
2022-10-11T19:57:24.492Z,98702.75
2022-10-11T20:02:26.913Z,98699.66
2022-10-11T20:07:29.532Z,98707.81
2022-10-11T20:12:33.053Z,98709.03
2022-10-11T20:17:48.499Z,98709.03
2022-10-11T20:22:51.176Z,98711.31
2022-10-11T20:27:53.521Z,98717.34
2022-10-11T20:32:55.861Z,98715.03
2022-10-11T20:37:58.258Z,98715.50
2022-10-11T20:43:00.693Z,98709.34
2022-10-11T20:48:03.041Z,98711.00
2022-10-11T20:53:05.469Z,98713.66
2022-10-11T20:58:07.862Z,98710.56
2022-10-11T21:03:10.993Z,98704.97
2022-10-11T21:08:13.733Z,98711.22
2022-10-11T21:13:16.116Z,98710.34
2022-10-11T21:18:19.059Z,98708.03
2022-10-11T21:23:21.740Z,98710.22
2022-10-11T21:28:24.212Z,98707.94
2022-10-11T21:33:26.858Z,98710.34
2022-10-11T21:38:29.206Z,98701.81
2022-10-11T21:43:31.817Z,98697.19
2022-10-11T21:48:34.162Z,98694.88
2022-10-11T21:53:37.029Z,98697.97
2022-10-11T21:58:39.627Z,98690.16
2022-10-11T22:03:42.061Z,98696.09
2022-10-11T22:08:44.574Z,98695.88
2022-10-11T22:13:47.171Z,98698.28
2022-10-11T22:18:49.851Z,98684.03
2022-10-11T22:23:53.937Z,98690.34
2022-10-11T22:28:56.839Z,98686.88
2022-10-11T22:34:00.602Z,98684.22
2022-10-11T22:39:07.769Z,98683.66
2022-10-11T22:44:10.911Z,98670.56
2022-10-11T22:49:13.225Z,98673.75
2022-10-11T22:54:15.831Z,98668.72
2022-10-11T22:59:18.379Z,98672.78
2022-10-11T23:04:21.001Z,98674.28
2022-10-11T23:09:26.587Z,98674.88
2022-10-11T23:14:28.939Z,98667.25
2022-10-11T23:19:31.335Z,98674.84
2022-10-11T23:24:33.693Z,98668.91
2022-10-11T23:29:40.051Z,98675.22
2022-10-11T23:34:42.708Z,98668.50
2022-10-11T23:39:45.597Z,98662.75
2022-10-11T23:44:48.175Z,98665.75
2022-10-11T23:49:51.795Z,98657.16
2022-10-11T23:54:54.107Z,98657.25
2022-10-11T23:59:56.500Z,98655.94
